Terminal Aerodrome Forecast
Issued by NWS

Home | Current Version | Previous Version | Text Only | Print | Product List | Glossary On
Versions: 1 2 3 4 5 6 7 8 9 10 11 12 13
984
FTUS45 KTFX 302327
TAFCTB
TAF
KCTB 302327Z 0100/0124 13010KT P6SM SCT200
     FM010500 VRB06KT P6SM SCT120 BKN150
     FM011200 35006KT P6SM SCT080 BKN150 PROB30 0115/0119 -SHRA
      BKN070
     FM011900 24014G28KT P6SM SCT090 BKN180=

USA.gov is the U.S. government's official web portal to all federal, state and local government web resources and services.